createdAt,value
2022-10-15T00:00:45.453Z,96985.38
2022-10-15T00:01:47.050Z,96983.34
2022-10-15T00:02:48.948Z,96982.31
2022-10-15T00:03:50.643Z,96992.09
2022-10-15T00:04:52.266Z,96979.09
2022-10-15T00:05:53.838Z,96982.88
2022-10-15T00:06:55.354Z,96980.44
2022-10-15T00:07:57.124Z,96977.63
2022-10-15T00:08:58.659Z,96980.00
2022-10-15T00:10:00.225Z,96980.00
2022-10-15T00:11:11.074Z,96982.69
2022-10-15T00:12:12.606Z,96982.03
2022-10-15T00:13:14.293Z,96985.38
2022-10-15T00:14:15.953Z,96986.16
2022-10-15T00:15:17.525Z,96984.72
2022-10-15T00:16:23.002Z,96988.06
2022-10-15T00:17:24.901Z,97000.22
2022-10-15T00:18:26.772Z,96996.50
2022-10-15T00:19:28.391Z,96995.69
2022-10-15T00:20:30.285Z,96993.78
2022-10-15T00:21:31.846Z,96990.00
2022-10-15T00:22:33.540Z,96983.47
2022-10-15T00:23:35.993Z,96988.88
2022-10-15T00:24:37.604Z,96990.47
2022-10-15T00:25:42.182Z,96987.81
2022-10-15T00:26:43.732Z,96985.53
2022-10-15T00:27:45.262Z,96985.13
2022-10-15T00:28:49.927Z,96982.31
2022-10-15T00:29:51.642Z,96982.53
2022-10-15T00:30:53.177Z,96983.63
2022-10-15T00:31:54.804Z,96984.81
2022-10-15T00:32:56.343Z,96986.53
2022-10-15T00:34:00.329Z,96981.97
2022-10-15T00:35:01.897Z,96981.56
2022-10-15T00:36:18.329Z,96982.53
2022-10-15T00:37:21.066Z,96984.09
2022-10-15T00:38:22.557Z,96979.84
2022-10-15T00:39:24.138Z,96979.53
2022-10-15T00:40:25.675Z,96979.22
2022-10-15T00:41:36.858Z,96980.00
2022-10-15T00:42:38.410Z,96980.63
2022-10-15T00:43:47.321Z,96972.16
2022-10-15T00:44:59.072Z,96972.19
2022-10-15T00:46:00.595Z,96976.81
2022-10-15T00:47:25.423Z,96974.97
2022-10-15T00:48:28.314Z,96978.47
2022-10-15T00:49:40.429Z,96980.47
2022-10-15T00:50:42.025Z,96978.66
2022-10-15T00:51:52.833Z,96976.06
2022-10-15T00:53:02.738Z,96975.81
2022-10-15T00:54:04.613Z,96976.88
2022-10-15T00:55:29.202Z,96975.81
2022-10-15T00:56:33.325Z,96972.44
2022-10-15T00:57:35.189Z,96975.16
2022-10-15T00:58:37.064Z,96969.50
2022-10-15T00:59:43.013Z,96975.94
2022-10-15T01:00:44.604Z,96961.84
2022-10-15T01:01:46.642Z,96971.53
2022-10-15T01:02:48.315Z,96967.34
2022-10-15T01:03:49.969Z,96959.34
2022-10-15T01:04:51.907Z,96955.47
2022-10-15T01:05:54.849Z,96956.84
2022-10-15T01:06:56.386Z,96952.94
2022-10-15T01:07:57.898Z,96952.66
2022-10-15T01:09:01.222Z,96952.03
2022-10-15T01:10:03.744Z,96955.16
2022-10-15T01:11:47.976Z,96954.50
2022-10-15T01:13:14.091Z,96957.72
2022-10-15T01:14:43.377Z,96961.31
2022-10-15T01:15:57.339Z,96955.63
2022-10-15T01:17:08.292Z,96953.31
2022-10-15T01:18:15.531Z,96950.53
2022-10-15T01:19:47.197Z,96946.97
2022-10-15T01:21:05.120Z,96954.47
2022-10-15T01:22:16.134Z,96951.91
2022-10-15T01:23:41.883Z,96955.94
2022-10-15T01:24:49.592Z,96953.06
2022-10-15T01:25:53.921Z,96947.94
2022-10-15T01:27:10.612Z,96946.94
2022-10-15T01:28:35.510Z,96941.81
2022-10-15T01:29:58.921Z,96948.16
2022-10-15T01:31:11.202Z,96947.94
2022-10-15T01:32:25.593Z,96939.56
2022-10-15T01:33:42.928Z,96936.66
2022-10-15T01:35:02.178Z,96941.34
2022-10-15T01:36:56.032Z,96940.56
2022-10-15T01:38:08.617Z,96939.22
2022-10-15T01:39:21.517Z,96953.66
2022-10-15T01:40:26.175Z,96948.19
2022-10-15T01:41:40.975Z,96952.63
2022-10-15T01:42:56.432Z,96944.44
2022-10-15T01:44:07.101Z,96950.56
2022-10-15T01:45:17.911Z,96949.53
2022-10-15T01:46:24.491Z,96957.06
2022-10-15T01:47:33.431Z,96956.75
2022-10-15T01:48:37.665Z,96955.78
2022-10-15T01:49:43.284Z,96948.47
2022-10-15T01:50:49.233Z,96948.03
2022-10-15T01:51:52.129Z,96949.69
2022-10-15T01:52:57.054Z,96956.13
2022-10-15T01:54:00.230Z,96960.03
2022-10-15T01:55:05.251Z,96953.88
2022-10-15T01:56:11.843Z,96953.81
2022-10-15T01:57:15.017Z,96958.97
2022-10-15T01:58:17.862Z,96961.94
2022-10-15T01:59:26.458Z,96961.28
2022-10-15T02:00:27.975Z,96967.56
2022-10-15T02:01:29.564Z,96963.13
2022-10-15T02:02:31.163Z,96965.97
2022-10-15T02:03:32.729Z,96971.00
2022-10-15T02:04:34.323Z,96964.31
2022-10-15T02:05:40.957Z,96974.22
2022-10-15T02:06:45.118Z,96970.63
2022-10-15T02:08:04.587Z,96965.91
2022-10-15T02:09:21.446Z,96966.38
2022-10-15T02:10:31.593Z,96969.31
2022-10-15T02:11:46.359Z,96970.22
2022-10-15T02:13:14.412Z,96971.91
2022-10-15T02:14:25.353Z,96971.13
2022-10-15T02:15:47.240Z,96974.41
2022-10-15T02:17:02.068Z,96967.06
2022-10-15T02:18:28.975Z,96972.81
2022-10-15T02:19:36.411Z,96968.81
2022-10-15T02:20:47.021Z,96967.84
2022-10-15T02:22:10.650Z,96962.59
2022-10-15T02:23:21.093Z,96963.47
2022-10-15T02:24:25.985Z,96965.97
2022-10-15T02:25:28.729Z,96964.19
2022-10-15T02:26:30.760Z,96973.16
2022-10-15T02:27:34.225Z,96962.22
2022-10-15T02:28:38.195Z,96963.31
2022-10-15T02:29:42.808Z,96967.91
2022-10-15T02:30:50.956Z,96965.78
2022-10-15T02:31:55.830Z,96961.31
2022-10-15T02:32:59.522Z,96968.72
2022-10-15T02:34:06.713Z,96962.34
2022-10-15T02:35:11.389Z,96963.00
2022-10-15T02:36:14.079Z,96965.16
2022-10-15T02:37:20.193Z,96965.16
2022-10-15T02:38:24.978Z,96964.47
2022-10-15T02:39:26.688Z,96963.16
2022-10-15T02:40:31.547Z,96958.66
2022-10-15T02:41:35.661Z,96962.25
2022-10-15T02:42:37.584Z,96958.91
2022-10-15T02:43:40.492Z,96964.72
2022-10-15T02:44:42.102Z,96957.13
2022-10-15T02:45:43.701Z,96969.88
2022-10-15T02:46:45.308Z,96960.03
2022-10-15T02:47:47.139Z,96965.53
2022-10-15T02:48:48.684Z,96964.06
2022-10-15T02:49:50.221Z,96966.53
2022-10-15T02:50:51.803Z,96955.13
2022-10-15T02:51:53.743Z,96953.78
2022-10-15T02:52:55.309Z,96955.81
2022-10-15T02:53:56.838Z,96955.81
2022-10-15T02:54:58.325Z,96955.69
2022-10-15T02:55:59.894Z,96953.31
2022-10-15T02:57:01.534Z,96963.19
2022-10-15T02:58:03.255Z,96962.28
2022-10-15T02:59:06.171Z,96958.03
2022-10-15T03:00:08.397Z,96973.03
2022-10-15T03:01:10.039Z,96954.66
2022-10-15T03:02:15.325Z,96965.41
2022-10-15T03:03:19.986Z,96962.28
2022-10-15T03:04:21.858Z,96964.94
2022-10-15T03:05:23.520Z,96959.06
2022-10-15T03:06:25.732Z,96962.59
2022-10-15T03:07:27.435Z,96965.84
2022-10-15T03:08:28.966Z,96961.59
2022-10-15T03:09:30.468Z,96959.50
2022-10-15T03:10:31.991Z,96960.38
2022-10-15T03:11:33.566Z,96958.06
2022-10-15T03:12:35.253Z,96962.03
2022-10-15T03:13:37.951Z,96963.47
2022-10-15T03:14:39.549Z,96956.91
2022-10-15T03:15:41.132Z,96959.41
2022-10-15T03:16:42.768Z,96955.75
2022-10-15T03:17:44.419Z,96962.69
2022-10-15T03:18:45.990Z,96966.00
2022-10-15T03:19:47.553Z,96959.34
2022-10-15T03:20:56.490Z,96964.81
2022-10-15T03:21:58.051Z,96963.75
2022-10-15T03:22:59.710Z,96962.97
2022-10-15T03:24:01.206Z,96957.22
2022-10-15T03:25:02.922Z,96962.38
2022-10-15T03:26:04.484Z,96967.06
2022-10-15T03:27:06.066Z,96966.44
2022-10-15T03:28:07.571Z,96963.03
2022-10-15T03:29:09.134Z,96966.28
2022-10-15T03:30:11.039Z,96956.47
2022-10-15T03:31:14.297Z,96961.31
2022-10-15T03:32:15.930Z,96961.72
2022-10-15T03:33:19.032Z,96967.88
2022-10-15T03:34:22.506Z,96961.53
2022-10-15T03:35:24.050Z,96959.44
2022-10-15T03:36:25.601Z,96958.00
2022-10-15T03:37:27.115Z,96963.00
2022-10-15T03:38:28.639Z,96958.44
2022-10-15T03:39:30.216Z,96951.50
2022-10-15T03:40:32.005Z,96962.22
2022-10-15T03:41:33.931Z,96963.56
2022-10-15T03:42:35.550Z,96957.41
2022-10-15T03:43:40.270Z,96963.31
2022-10-15T03:44:44.239Z,96959.91
2022-10-15T03:45:45.809Z,96961.63
2022-10-15T03:46:47.332Z,96958.75
2022-10-15T03:47:49.062Z,96965.66
2022-10-15T03:48:50.759Z,96962.00
2022-10-15T03:49:52.263Z,96957.41
2022-10-15T03:50:53.766Z,96960.53
2022-10-15T03:51:55.420Z,96960.41
2022-10-15T03:52:56.937Z,96958.72
2022-10-15T03:53:58.787Z,96969.28
2022-10-15T03:55:00.370Z,96962.50
2022-10-15T03:56:05.945Z,96961.56
2022-10-15T03:57:07.536Z,96960.66
2022-10-15T03:58:09.078Z,96960.78
2022-10-15T03:59:10.630Z,96966.28
2022-10-15T04:00:13.785Z,96967.66
2022-10-15T04:01:17.581Z,96968.13
2022-10-15T04:02:19.126Z,96964.31
2022-10-15T04:03:20.715Z,96960.53
2022-10-15T04:04:22.346Z,96965.09
2022-10-15T04:05:23.875Z,96967.47
2022-10-15T04:06:25.633Z,96967.28
2022-10-15T04:07:27.472Z,96973.22
2022-10-15T04:08:29.365Z,96969.56
2022-10-15T04:09:30.956Z,96966.25
2022-10-15T04:10:32.485Z,96974.28
2022-10-15T04:11:34.067Z,96972.50
2022-10-15T04:12:35.611Z,96971.72
2022-10-15T04:13:37.181Z,96970.28
2022-10-15T04:14:38.709Z,96969.16
2022-10-15T04:15:40.309Z,96971.66
2022-10-15T04:16:41.904Z,96971.00
2022-10-15T04:17:43.524Z,96973.47
2022-10-15T04:18:45.479Z,96969.81
2022-10-15T04:19:47.097Z,96973.72
2022-10-15T04:20:49.317Z,96968.50
2022-10-15T04:21:50.996Z,96967.50
2022-10-15T04:22:52.494Z,96962.78
2022-10-15T04:23:54.127Z,96963.91
2022-10-15T04:24:55.699Z,96961.16
2022-10-15T04:26:01.037Z,96965.97
2022-10-15T04:27:02.668Z,96965.84
2022-10-15T04:28:04.440Z,96970.78
2022-10-15T04:29:06.012Z,96972.66
2022-10-15T04:30:08.104Z,96974.88
2022-10-15T04:31:09.645Z,96979.56
2022-10-15T04:32:15.188Z,96981.16
2022-10-15T04:33:17.098Z,96980.50
2022-10-15T04:34:18.781Z,96978.94
2022-10-15T04:35:20.904Z,96981.28
2022-10-15T04:36:22.432Z,96984.41
2022-10-15T04:37:24.313Z,96974.72
2022-10-15T04:38:26.071Z,96981.53
2022-10-15T04:39:27.601Z,96982.31
2022-10-15T04:40:29.151Z,96981.72
2022-10-15T04:41:31.147Z,96991.25
2022-10-15T04:42:32.667Z,96982.97
2022-10-15T04:43:34.747Z,96983.63
2022-10-15T04:44:36.320Z,96987.41
2022-10-15T04:45:37.838Z,96980.09
2022-10-15T04:46:39.962Z,96980.31
2022-10-15T04:47:41.557Z,96982.69
2022-10-15T04:48:43.539Z,96982.44
2022-10-15T04:49:45.239Z,96979.94
2022-10-15T04:50:46.786Z,96975.88
2022-10-15T04:51:48.659Z,96977.13
2022-10-15T04:52:50.297Z,96973.88
2022-10-15T04:53:51.887Z,96977.00
2022-10-15T04:54:54.009Z,96981.66
2022-10-15T04:56:03.794Z,96982.31
2022-10-15T04:57:05.586Z,96990.38
2022-10-15T04:58:07.247Z,96986.56
2022-10-15T04:59:08.940Z,96983.81
2022-10-15T05:00:11.224Z,96986.31
2022-10-15T05:01:15.830Z,96985.19
2022-10-15T05:02:17.590Z,96986.97
2022-10-15T05:03:19.169Z,96986.31
2022-10-15T05:04:20.707Z,96988.81
2022-10-15T05:05:22.347Z,96990.22
2022-10-15T05:06:23.874Z,96990.47
2022-10-15T05:07:26.403Z,96989.63
2022-10-15T05:08:29.867Z,96997.66
2022-10-15T05:09:31.425Z,97002.84
2022-10-15T05:10:33.125Z,96999.63
2022-10-15T05:11:38.188Z,96992.84
2022-10-15T05:12:39.778Z,97001.34
2022-10-15T05:13:42.532Z,96997.28
2022-10-15T05:14:44.101Z,96994.94
2022-10-15T05:15:45.668Z,96994.59
2022-10-15T05:16:47.255Z,97000.91
2022-10-15T05:17:48.783Z,96999.56
2022-10-15T05:18:55.089Z,97007.75
2022-10-15T05:19:56.628Z,97009.81
2022-10-15T05:21:01.566Z,97006.72
2022-10-15T05:22:03.159Z,97004.38
2022-10-15T05:23:06.270Z,97011.00
2022-10-15T05:24:07.889Z,97011.28
2022-10-15T05:25:09.764Z,97015.81
2022-10-15T05:26:14.116Z,97019.22
2022-10-15T05:27:15.671Z,97013.38
2022-10-15T05:28:17.186Z,97016.69
2022-10-15T05:29:18.826Z,97016.97
2022-10-15T05:30:20.333Z,97023.56
2022-10-15T05:31:23.807Z,97023.25
2022-10-15T05:32:25.422Z,97026.09
2022-10-15T05:33:27.956Z,97026.72
2022-10-15T05:34:30.669Z,97026.06
2022-10-15T05:35:32.348Z,97031.97
2022-10-15T05:36:34.111Z,97033.16
2022-10-15T05:37:35.640Z,97030.81
2022-10-15T05:38:37.345Z,97028.72
2022-10-15T05:39:38.852Z,97026.03
2022-10-15T05:40:40.381Z,97028.63
2022-10-15T05:41:41.952Z,97027.03
2022-10-15T05:42:43.482Z,97027.31
2022-10-15T05:43:49.559Z,97021.56
2022-10-15T05:44:51.086Z,97028.41
2022-10-15T05:45:56.553Z,97027.88
2022-10-15T05:46:58.080Z,97028.03
2022-10-15T05:47:59.593Z,97030.25
2022-10-15T05:49:01.112Z,97032.72
2022-10-15T05:50:02.687Z,97038.09
2022-10-15T05:51:06.045Z,97040.97
2022-10-15T05:52:07.667Z,97034.97
2022-10-15T05:53:09.319Z,97047.50
2022-10-15T05:54:10.835Z,97038.28
2022-10-15T05:55:12.392Z,97036.66
2022-10-15T05:56:14.731Z,97044.59
2022-10-15T05:57:16.256Z,97047.19
2022-10-15T05:58:17.773Z,97046.69
2022-10-15T05:59:19.338Z,97040.63
2022-10-15T06:00:20.978Z,97039.19
2022-10-15T06:01:23.122Z,97046.16
2022-10-15T06:02:25.142Z,97040.63
2022-10-15T06:03:28.341Z,97040.09
2022-10-15T06:04:33.198Z,97035.31
2022-10-15T06:05:37.258Z,97041.69
2022-10-15T06:06:38.811Z,97044.81
2022-10-15T06:07:40.383Z,97044.78
2022-10-15T06:08:41.931Z,97049.03
2022-10-15T06:09:43.469Z,97050.63
2022-10-15T06:10:45.169Z,97044.56
2022-10-15T06:11:47.085Z,97043.47
2022-10-15T06:12:50.641Z,97043.00
2022-10-15T06:13:52.305Z,97047.94
2022-10-15T06:14:53.888Z,97043.22
2022-10-15T06:15:55.401Z,97049.19
2022-10-15T06:16:56.923Z,97052.53
2022-10-15T06:17:59.183Z,97048.78
2022-10-15T06:19:00.830Z,97045.25
2022-10-15T06:20:02.436Z,97049.69
2022-10-15T06:21:04.443Z,97051.94
2022-10-15T06:22:06.090Z,97053.16
2022-10-15T06:23:07.648Z,97059.06
2022-10-15T06:24:10.181Z,97056.13
2022-10-15T06:25:11.882Z,97061.22
2022-10-15T06:26:13.464Z,97057.44
2022-10-15T06:27:15.158Z,97057.44
2022-10-15T06:28:16.851Z,97063.69
2022-10-15T06:29:18.383Z,97062.31
2022-10-15T06:30:20.771Z,97065.81
2022-10-15T06:31:22.415Z,97064.47
2022-10-15T06:32:23.928Z,97068.44
2022-10-15T06:33:25.771Z,97076.41
2022-10-15T06:34:27.516Z,97069.94
2022-10-15T06:35:33.448Z,97072.63
2022-10-15T06:36:35.026Z,97072.13
2022-10-15T06:37:36.539Z,97075.41
2022-10-15T06:38:39.414Z,97081.28
2022-10-15T06:39:41.076Z,97081.09
2022-10-15T06:40:42.630Z,97077.28
2022-10-15T06:41:44.278Z,97075.63
2022-10-15T06:42:45.799Z,97076.09
2022-10-15T06:43:50.412Z,97084.41
2022-10-15T06:44:51.949Z,97084.00
2022-10-15T06:45:53.453Z,97078.91
2022-10-15T06:46:55.175Z,97086.09
2022-10-15T06:47:56.722Z,97083.22
2022-10-15T06:48:58.266Z,97082.28
2022-10-15T06:50:00.609Z,97084.94
2022-10-15T06:51:03.136Z,97086.63
2022-10-15T06:52:05.070Z,97085.81
2022-10-15T06:53:07.333Z,97079.69
2022-10-15T06:54:08.924Z,97080.38
2022-10-15T06:55:10.524Z,97079.69
2022-10-15T06:56:12.305Z,97086.13
2022-10-15T06:57:13.844Z,97084.34
2022-10-15T06:58:15.373Z,97082.59
2022-10-15T06:59:17.256Z,97071.91
2022-10-15T07:00:18.990Z,97071.97
2022-10-15T07:01:20.616Z,97071.88
2022-10-15T07:02:23.724Z,97075.97
2022-10-15T07:03:25.558Z,97077.59
2022-10-15T07:04:27.093Z,97072.38
2022-10-15T07:05:28.630Z,97071.88
2022-10-15T07:06:30.173Z,97066.06
2022-10-15T07:07:31.703Z,97067.28
2022-10-15T07:08:34.188Z,97076.41
2022-10-15T07:09:36.795Z,97075.44
2022-10-15T07:10:38.352Z,97079.53
2022-10-15T07:11:39.902Z,97075.50
2022-10-15T07:12:41.420Z,97070.56
2022-10-15T07:13:44.279Z,97069.34
2022-10-15T07:14:47.501Z,97069.56
2022-10-15T07:15:53.856Z,97066.78
2022-10-15T07:16:55.510Z,97074.72
2022-10-15T07:18:01.219Z,97074.00
2022-10-15T07:19:03.191Z,97072.81
2022-10-15T07:20:05.737Z,97066.50
2022-10-15T07:21:12.123Z,97066.31
2022-10-15T07:22:13.696Z,97067.88
2022-10-15T07:23:15.226Z,97062.47
2022-10-15T07:24:16.751Z,97061.91
2022-10-15T07:25:18.267Z,97071.88
2022-10-15T07:26:19.895Z,97078.63
2022-10-15T07:27:21.478Z,97069.28
2022-10-15T07:28:23.137Z,97066.09
2022-10-15T07:29:24.781Z,97072.13
2022-10-15T07:30:29.924Z,97069.25
2022-10-15T07:31:31.604Z,97073.16
2022-10-15T07:32:33.959Z,97072.84
2022-10-15T07:33:35.739Z,97073.16
2022-10-15T07:34:37.242Z,97078.94
2022-10-15T07:35:39.051Z,97066.41
2022-10-15T07:36:40.668Z,97070.59
2022-10-15T07:37:42.202Z,97067.59
2022-10-15T07:38:43.764Z,97064.13
2022-10-15T07:39:45.306Z,97069.56
2022-10-15T07:40:46.933Z,97064.81
2022-10-15T07:41:48.507Z,97064.41
2022-10-15T07:42:57.023Z,97062.53
2022-10-15T07:43:58.563Z,97061.63
2022-10-15T07:45:00.122Z,97066.69
2022-10-15T07:46:02.026Z,97063.84
2022-10-15T07:47:03.533Z,97064.34
2022-10-15T07:48:05.793Z,97058.41
2022-10-15T07:49:07.402Z,97061.25
2022-10-15T07:50:09.405Z,97059.94
2022-10-15T07:51:11.817Z,97062.84
2022-10-15T07:52:13.547Z,97068.63
2022-10-15T07:53:18.049Z,97067.94
2022-10-15T07:54:22.295Z,97065.06
2022-10-15T07:55:23.850Z,97069.00
2022-10-15T07:56:25.439Z,97065.06
2022-10-15T07:57:26.943Z,97071.53
2022-10-15T07:58:30.352Z,97077.00
2022-10-15T07:59:31.912Z,97069.84
2022-10-15T08:01:39.942Z,97066.03
2022-10-15T08:02:41.556Z,97067.88
2022-10-15T08:03:43.140Z,97067.47
2022-10-15T08:04:45.056Z,97065.50
2022-10-15T08:05:46.667Z,97065.91
2022-10-15T08:06:49.769Z,97070.75
2022-10-15T08:07:51.731Z,97069.63
2022-10-15T08:08:58.848Z,97069.34
2022-10-15T08:10:04.054Z,97075.00
2022-10-15T08:14:06.194Z,97068.25
2022-10-15T08:15:09.396Z,97067.09
2022-10-15T08:16:16.046Z,97068.22
2022-10-15T08:17:24.021Z,97063.63
2022-10-15T08:18:32.170Z,97058.75
2022-10-15T08:19:36.848Z,97057.63
2022-10-15T08:20:47.683Z,97060.91
2022-10-15T08:21:55.835Z,97058.66
2022-10-15T08:23:03.949Z,97062.25
2022-10-15T08:24:10.027Z,97063.69
2022-10-15T08:25:13.947Z,97059.69
2022-10-15T08:26:22.084Z,97062.22
2022-10-15T08:27:29.949Z,97059.69
2022-10-15T08:28:38.593Z,97060.84
2022-10-15T08:29:52.115Z,97055.91
2022-10-15T08:31:04.362Z,97056.34
2022-10-15T08:32:08.605Z,97057.56
2022-10-15T08:33:15.125Z,97047.56
2022-10-15T08:34:23.248Z,97050.91
2022-10-15T08:35:32.069Z,97051.91
2022-10-15T08:36:35.869Z,97051.16
2022-10-15T08:37:42.995Z,97047.81
2022-10-15T08:38:52.175Z,97042.88
2022-10-15T08:39:57.166Z,97050.72
2022-10-15T08:41:04.869Z,97042.72
2022-10-15T08:42:30.150Z,97040.91
2022-10-15T08:43:40.468Z,97043.28
2022-10-15T08:44:54.916Z,97040.50
2022-10-15T08:46:03.150Z,97045.59
2022-10-15T08:47:18.277Z,97043.72
2022-10-15T08:50:34.923Z,97047.41
2022-10-15T08:51:57.174Z,97038.97
2022-10-15T08:53:00.322Z,97034.34
2022-10-15T08:54:10.055Z,97040.59
2022-10-15T08:55:18.400Z,97032.75
2022-10-15T08:56:36.847Z,97032.28
2022-10-15T08:57:44.413Z,97040.00
2022-10-15T08:58:54.514Z,97034.25
2022-10-15T09:00:09.184Z,97033.38
2022-10-15T09:01:19.889Z,97035.72
2022-10-15T09:02:33.191Z,97033.38
2022-10-15T09:04:09.667Z,97034.16
2022-10-15T09:05:52.322Z,97032.75
2022-10-15T09:07:08.587Z,97035.91
2022-10-15T09:08:24.118Z,97034.34
2022-10-15T09:09:39.251Z,97034.31
2022-10-15T09:10:50.111Z,97026.56
2022-10-15T09:12:08.221Z,97031.59
2022-10-15T09:14:41.565Z,97029.66
2022-10-15T09:15:53.445Z,97034.97
2022-10-15T09:16:55.043Z,97041.91
2022-10-15T09:17:56.622Z,97033.38
2022-10-15T09:19:03.346Z,97034.91
2022-10-15T09:20:07.926Z,97031.75
2022-10-15T09:21:11.448Z,97038.69
2022-10-15T09:22:17.383Z,97026.28
2022-10-15T09:23:22.248Z,97031.72
2022-10-15T09:24:25.932Z,97038.69
2022-10-15T09:25:38.927Z,97031.38
2022-10-15T09:26:52.834Z,97037.25
2022-10-15T09:27:56.851Z,97029.47
2022-10-15T09:29:11.271Z,97032.59
2022-10-15T09:30:26.687Z,97026.13
2022-10-15T09:31:35.689Z,97023.41
2022-10-15T09:32:54.202Z,97021.13
2022-10-15T09:34:05.820Z,97021.53
2022-10-15T09:35:13.768Z,97021.09
2022-10-15T09:36:37.152Z,97021.88
2022-10-15T09:37:52.887Z,97024.97
2022-10-15T09:39:00.821Z,97020.38
2022-10-15T09:40:40.830Z,97016.56
2022-10-15T09:42:04.110Z,97014.63
2022-10-15T09:43:09.994Z,97012.69
2022-10-15T09:44:15.848Z,97015.03
2022-10-15T09:45:20.749Z,97013.53
2022-10-15T09:46:28.839Z,97009.69
2022-10-15T09:47:38.892Z,97019.03
2022-10-15T09:48:48.767Z,97011.66
2022-10-15T09:49:50.792Z,97013.63
2022-10-15T09:51:03.762Z,97007.38
2022-10-15T09:52:37.959Z,97010.09
2022-10-15T09:54:10.993Z,97013.56
2022-10-15T09:55:33.322Z,97008.09
2022-10-15T09:56:41.072Z,97007.69
2022-10-15T09:57:52.416Z,97005.75
2022-10-15T09:58:57.726Z,97007.25
2022-10-15T10:00:02.803Z,97002.56
2022-10-15T10:01:08.710Z,96994.03
2022-10-15T10:02:13.965Z,96999.56
2022-10-15T10:03:15.928Z,97002.69
2022-10-15T10:04:21.829Z,96998.47
2022-10-15T10:05:30.880Z,96999.66
2022-10-15T10:06:33.096Z,97005.09
2022-10-15T10:07:37.933Z,96996.97
2022-10-15T10:09:01.670Z,97000.50
2022-10-15T10:10:27.802Z,96990.38
2022-10-15T10:12:05.430Z,96998.94
2022-10-15T10:13:23.043Z,96995.03
2022-10-15T10:14:36.982Z,96992.72
2022-10-15T10:15:43.019Z,96996.16
2022-10-15T10:17:18.076Z,96989.53
2022-10-15T10:18:23.346Z,96988.75
2022-10-15T10:19:26.924Z,96986.81
2022-10-15T10:20:32.247Z,96987.97
2022-10-15T10:21:44.403Z,96987.19
2022-10-15T10:22:59.316Z,96986.06
2022-10-15T10:24:38.286Z,96986.47
2022-10-15T10:25:45.137Z,96981.03
2022-10-15T10:26:48.207Z,96986.47
2022-10-15T10:27:49.742Z,96978.69
2022-10-15T10:28:56.913Z,96988.03
2022-10-15T10:30:02.685Z,96982.59
2022-10-15T10:31:07.934Z,96984.94
2022-10-15T10:32:30.690Z,96983.78
2022-10-15T10:33:42.396Z,96976.78
2022-10-15T10:34:48.710Z,96980.66
2022-10-15T10:35:53.710Z,96982.59
2022-10-15T10:36:56.261Z,96979.47
2022-10-15T10:37:58.708Z,96981.81
2022-10-15T10:39:14.015Z,96982.59
2022-10-15T10:40:32.423Z,96982.19
2022-10-15T10:41:56.582Z,96973.28
2022-10-15T10:43:16.695Z,96980.25
2022-10-15T10:44:39.171Z,96971.69
2022-10-15T10:45:56.765Z,96969.31
2022-10-15T10:47:19.450Z,96967.03
2022-10-15T10:48:24.644Z,96970.16
2022-10-15T10:49:34.859Z,96963.16
2022-10-15T10:50:40.682Z,96959.25
2022-10-15T10:51:50.034Z,96973.63
2022-10-15T10:52:51.587Z,96967.41
2022-10-15T10:53:58.295Z,96970.16
2022-10-15T10:55:07.138Z,96963.16
2022-10-15T10:56:13.580Z,96960.84
2022-10-15T10:57:23.683Z,96960.81
2022-10-15T10:58:29.317Z,96957.31
2022-10-15T10:59:46.377Z,96957.34
2022-10-15T11:00:52.619Z,96960.44
2022-10-15T11:01:56.645Z,96963.16
2022-10-15T11:02:58.483Z,96954.63
2022-10-15T11:04:00.113Z,96952.28
2022-10-15T11:05:03.043Z,96951.50
2022-10-15T11:06:04.496Z,96954.59
2022-10-15T11:07:37.412Z,96946.44
2022-10-15T11:08:59.641Z,96952.25
2022-10-15T11:10:07.900Z,96955.38
2022-10-15T11:11:21.878Z,96951.50
2022-10-15T11:12:38.685Z,96954.97
2022-10-15T11:13:46.304Z,96945.25
2022-10-15T11:15:14.074Z,96953.03
2022-10-15T11:16:23.630Z,96941.38
2022-10-15T11:17:36.277Z,96944.47
2022-10-15T11:19:09.344Z,96941.38
2022-10-15T11:20:35.290Z,96941.75
2022-10-15T11:22:14.887Z,96939.03
2022-10-15T11:23:46.897Z,96946.78
2022-10-15T11:25:08.424Z,96932.00
2022-10-15T11:26:37.101Z,96945.25
2022-10-15T11:28:19.226Z,96935.84
2022-10-15T11:29:20.793Z,96934.66
2022-10-15T11:30:46.981Z,96931.94
2022-10-15T11:32:02.638Z,96922.63
2022-10-15T11:33:36.676Z,96934.31
2022-10-15T11:35:03.208Z,96930.44
2022-10-15T11:36:22.768Z,96928.84
2022-10-15T11:37:40.460Z,96939.41
2022-10-15T11:38:59.740Z,96925.78
2022-10-15T11:40:13.820Z,96929.66
2022-10-15T11:41:24.247Z,96933.91
2022-10-15T11:42:37.374Z,96926.53
2022-10-15T11:44:08.178Z,96917.94
2022-10-15T11:45:25.840Z,96923.41
2022-10-15T11:46:44.229Z,96919.53
2022-10-15T11:47:54.262Z,96925.78
2022-10-15T11:49:46.144Z,96923.75
2022-10-15T11:54:52.795Z,96913.31
2022-10-15T11:59:10.047Z,96912.50
2022-10-15T12:00:34.438Z,96911.69
2022-10-15T12:02:04.580Z,96908.59
2022-10-15T12:03:12.414Z,96909.38
2022-10-15T12:04:28.983Z,96905.88
2022-10-15T12:05:41.690Z,96905.88
2022-10-15T12:06:50.168Z,96906.28
2022-10-15T12:07:51.838Z,96904.66
2022-10-15T12:08:56.949Z,96903.84
2022-10-15T12:10:14.080Z,96899.16
2022-10-15T12:11:38.744Z,96896.88
2022-10-15T12:12:46.318Z,96892.94
2022-10-15T12:13:58.304Z,96901.53
2022-10-15T12:15:15.186Z,96903.81
2022-10-15T12:16:26.749Z,96891.75
2022-10-15T12:17:42.448Z,96899.94
2022-10-15T12:18:47.627Z,96895.22
2022-10-15T12:19:55.973Z,96894.81
2022-10-15T12:20:58.629Z,96900.63
2022-10-15T12:22:09.613Z,96892.06
2022-10-15T12:23:39.369Z,96892.88
2022-10-15T12:24:50.330Z,96890.56
2022-10-15T12:25:52.141Z,96899.16
2022-10-15T12:26:53.723Z,96899.19
2022-10-15T12:28:03.821Z,96890.69
2022-10-15T12:29:19.362Z,96898.06
2022-10-15T12:30:23.201Z,96896.94
2022-10-15T12:31:25.377Z,96902.38
2022-10-15T12:32:41.013Z,96889.97
2022-10-15T12:33:52.972Z,96890.72
2022-10-15T12:35:14.764Z,96888.38
2022-10-15T12:36:19.045Z,96882.91
2022-10-15T12:37:23.986Z,96895.34
2022-10-15T12:38:53.497Z,96894.19
2022-10-15T12:39:58.470Z,96887.94
2022-10-15T12:41:03.038Z,96891.09
2022-10-15T12:42:04.587Z,96889.94
2022-10-15T12:43:16.150Z,96888.34
2022-10-15T12:44:20.758Z,96889.13
2022-10-15T12:45:38.978Z,96894.59
2022-10-15T12:46:42.446Z,96899.28
2022-10-15T12:47:49.055Z,96889.94
2022-10-15T12:48:54.091Z,96887.63
2022-10-15T12:50:03.722Z,96896.22
2022-10-15T12:51:25.458Z,96891.53
2022-10-15T12:53:01.715Z,96882.19
2022-10-15T12:54:34.538Z,96892.28
2022-10-15T12:55:38.731Z,96885.28
2022-10-15T12:56:41.773Z,96882.53
2022-10-15T12:57:46.292Z,96891.13
2022-10-15T12:58:51.486Z,96877.56
2022-10-15T12:59:54.773Z,96884.53
2022-10-15T13:00:56.382Z,96882.59
2022-10-15T13:01:57.951Z,96880.66
2022-10-15T13:03:33.932Z,96882.97
2022-10-15T13:04:39.271Z,96881.84
2022-10-15T13:05:41.045Z,96885.38
2022-10-15T13:06:43.833Z,96873.72
2022-10-15T13:07:47.503Z,96881.50
2022-10-15T13:08:54.257Z,96877.59
2022-10-15T13:09:56.067Z,96873.72
2022-10-15T13:11:00.514Z,96879.94
2022-10-15T13:12:02.479Z,96870.97
2022-10-15T13:13:06.838Z,96884.59
2022-10-15T13:14:29.243Z,96880.66
2022-10-15T13:15:32.645Z,96874.41
2022-10-15T13:16:36.039Z,96874.41
2022-10-15T13:17:39.277Z,96871.69
2022-10-15T13:18:43.166Z,96875.97
2022-10-15T13:20:09.668Z,96871.72